Lupin, Canada
Current Conditions -  °F | °C
As of 7:00 AM on Saturday 25 Oct 2014 (Local Time) from CYWE Reporting Station
Overcast Overcast  
Wind Chill:   Ceiling: 1000
Heat Index: 18°   Visibility: 9mi
Dew Point: 16°   Wind: 12mph
Humidity: 93%   Direction: 340°NNW
Pressure: 29.81"   Gusts: NA
Location:  65.76°N, 111.25°W
Report Text: CYWE 251300Z AUTO 34010KT 9SM OVC010 M08/M09 A2981 RMK SLP124
Loading
Personal Weather Stations






























Interactive Weather Map
Tropical Storm Tracking
New forecast layout! Learn more

10-Day Weather Forecast

Advertisements
Track Severe Weather on mobile